Irving, TX

8:27 AM CDT on July 25, 2016 (GMT -0500)
Hackberry Creek | | Change Station

Elev 507 ft 32.91 °N, 96.98 °W | Updated 11 seconds ago

Mostly Cloudy
Mostly Cloudy
83.1 °F
Feels Like 92 °F
N
3.2
Wind Variable Wind from SSE
Gusts 3.7 mph

Today
High -- | Low -- °F
--% Chance of Precip.
Yesterday
High -- | Low -- °F
Precip. -- in
Pressure 29.94 in
Visibility 10.0 miles
Clouds Few 9000 ft
Few 11000 ft
Scattered Clouds 15000 ft
Mostly Cloudy 17000 ft
Heat Index 92 °F
Dew Point 76 °F
Humidity 80%
Rainfall 0.00 in
Snow Depth Not available.
6:37 AM 8:31 PM
Waning Gibbous, 66% visible
METAR KDFW 251253Z 18005KT 10SM FEW090 FEW110 SCT150 BKN170 28/23 A2997 RMK AO2 SLP137 T02830228
Pressure 29.94 in
Visibility 10.0 miles
Clouds Few 9000 ft
Few 11000 ft
Scattered Clouds 15000 ft
Mostly Cloudy 17000 ft
Heat Index 92 °F
Dew Point 76 °F
Humidity 80%
Rainfall 0.00 in
Snow Depth Not available.
6:37 AM 8:31 PM
Waning Gibbous, 66% visible
METAR KDFW 251253Z 18005KT 10SM FEW090 FEW110 SCT150 BKN170 28/23 A2997 RMK AO2 SLP137 T02830228

10-Day Weather Forecast

Almanac

Astronomy

Jul. 25, 2016 Rise Set
Actual Time
Civil Twilight
Nautical Twilight
Astronomical Twilight
Moon
Length of Visible Light
Length of Day
Tomorrow will be .
, % of the Moon is Illuminated

Today's Extremes

State Highs State Lows

Community

WunderPhotos

Upload Photos

1,927,300 photos uploaded!

WunderBlog® & News

Nearby

Air Quality

  Air Quality AQ Index Pollutant
Not available.

Snow Depth

Station Depth Elevation

Earthquake Activity

City Distance Mag. Time & Date
Minimum magnitude displayed is 2.5.

Coastal Water Temperatures

Place Temperature

Stations

Nearby Weather Stations

Station Location Temp. Windchill Dew Point Humidity Wind Precip. Elev Updated Type
                   

Watches & Warnings

There are currently no watches in effect.